createdAt,value
2023-09-23T00:01:11.924Z,15.90
2023-09-23T00:06:15.346Z,16.00
2023-09-23T00:11:19.239Z,16.00
2023-09-23T00:16:24.220Z,16.00
2023-09-23T00:21:27.933Z,16.00
2023-09-23T00:26:31.102Z,16.00
2023-09-23T00:31:35.597Z,16.00
2023-09-23T00:36:39.447Z,16.00
2023-09-23T00:41:43.326Z,16.00
2023-09-23T00:46:47.986Z,16.10
2023-09-23T00:51:51.796Z,16.10
2023-09-23T00:56:55.320Z,16.20
2023-09-23T01:02:00.524Z,16.20
2023-09-23T01:07:03.646Z,16.10
2023-09-23T01:12:08.965Z,16.10
2023-09-23T01:17:15.690Z,16.00
2023-09-23T01:22:25.491Z,15.90
2023-09-23T01:27:28.702Z,15.80
2023-09-23T01:32:38.819Z,15.70
2023-09-23T01:37:43.465Z,15.70
2023-09-23T01:42:47.460Z,15.70
2023-09-23T01:47:50.945Z,15.70
2023-09-23T01:52:57.261Z,15.70
2023-09-23T01:58:00.701Z,15.80
2023-09-23T02:03:04.177Z,15.80
2023-09-23T02:08:09.014Z,15.80
2023-09-23T02:13:12.169Z,15.80
2023-09-23T02:18:16.703Z,15.80
2023-09-23T02:23:23.140Z,15.80
2023-09-23T02:28:26.440Z,15.90
2023-09-23T02:33:30.772Z,15.90
2023-09-23T02:38:37.243Z,15.90
2023-09-23T02:43:41.267Z,15.90
2023-09-23T02:48:44.652Z,16.00
2023-09-23T02:53:49.346Z,16.00
2023-09-23T02:58:53.965Z,16.00
2023-09-23T03:03:57.685Z,16.00
2023-09-23T03:09:02.295Z,16.00
2023-09-23T03:14:07.223Z,16.00
2023-09-23T03:19:12.714Z,16.00
2023-09-23T03:24:17.595Z,16.10
2023-09-23T03:29:20.722Z,16.10
2023-09-23T03:34:24.444Z,16.10
2023-09-23T03:39:29.864Z,16.10
2023-09-23T03:44:34.505Z,16.20
2023-09-23T03:49:37.613Z,16.20
2023-09-23T03:54:42.364Z,16.20
2023-09-23T03:59:45.534Z,16.20
2023-09-23T04:04:51.169Z,16.30
2023-09-23T04:09:55.728Z,16.30
2023-09-23T04:14:59.762Z,16.30
2023-09-23T04:20:09.228Z,16.30
2023-09-23T04:25:15.900Z,16.30
2023-09-23T04:30:19.013Z,16.30
2023-09-23T04:35:22.255Z,16.30
2023-09-23T04:40:27.382Z,16.30
2023-09-23T04:45:30.722Z,16.30
2023-09-23T04:50:33.864Z,16.30
2023-09-23T04:55:38.721Z,16.30
2023-09-23T05:00:41.981Z,16.30
2023-09-23T05:05:45.628Z,16.20
2023-09-23T05:10:51.082Z,16.20
2023-09-23T05:15:54.420Z,16.10
2023-09-23T05:20:57.625Z,16.10
2023-09-23T05:26:02.197Z,16.10
2023-09-23T05:31:06.076Z,16.00
2023-09-23T05:36:09.324Z,16.00
2023-09-23T05:41:15.031Z,16.00
2023-09-23T05:46:18.143Z,15.90
2023-09-23T05:51:21.310Z,15.90
2023-09-23T05:56:25.922Z,15.90
2023-09-23T06:01:29.111Z,15.80
2023-09-23T06:06:32.784Z,15.80
2023-09-23T06:11:38.500Z,15.70
2023-09-23T06:16:41.729Z,15.70
2023-09-23T06:21:44.927Z,15.70
2023-09-23T06:26:49.624Z,15.70
2023-09-23T06:31:53.278Z,15.70
2023-09-23T06:36:56.400Z,15.70
2023-09-23T06:42:01.193Z,15.70
2023-09-23T06:47:05.071Z,15.70
2023-09-23T06:52:08.413Z,15.70
2023-09-23T06:57:12.952Z,15.80
2023-09-23T07:02:16.444Z,15.80
2023-09-23T07:07:19.670Z,15.90
2023-09-23T07:12:24.992Z,15.90
2023-09-23T07:17:28.959Z,16.00
2023-09-23T07:22:32.245Z,16.10
2023-09-23T07:27:36.753Z,16.20
2023-09-23T07:32:40.037Z,16.20
2023-09-23T07:37:43.496Z,16.20
2023-09-23T07:42:47.990Z,16.30
2023-09-23T07:47:51.314Z,16.30
2023-09-23T07:52:54.833Z,16.50
2023-09-23T07:57:59.478Z,16.60
2023-09-23T08:03:02.654Z,16.70
2023-09-23T08:08:07.464Z,16.80
2023-09-23T08:13:12.093Z,16.90
2023-09-23T08:18:15.428Z,17.00
2023-09-23T08:23:18.647Z,17.10
2023-09-23T08:28:24.063Z,17.10
2023-09-23T08:33:29.030Z,17.20
2023-09-23T08:38:32.418Z,17.20
2023-09-23T08:43:38.894Z,17.20
2023-09-23T08:48:42.920Z,17.30
2023-09-23T08:53:47.848Z,17.40
2023-09-23T08:58:53.209Z,17.50
2023-09-23T09:03:56.409Z,17.70
2023-09-23T09:08:59.566Z,17.90
2023-09-23T09:14:04.080Z,18.10
2023-09-23T09:19:07.461Z,18.20
2023-09-23T09:24:11.460Z,18.30
2023-09-23T09:29:17.697Z,18.40
2023-09-23T09:34:26.383Z,18.40
2023-09-23T09:39:33.554Z,18.50
2023-09-23T09:44:39.284Z,18.50
2023-09-23T09:49:43.894Z,18.50
2023-09-23T09:54:47.231Z,18.70
2023-09-23T09:59:53.426Z,18.70
2023-09-23T10:05:04.069Z,18.80
2023-09-23T10:10:14.813Z,18.70
2023-09-23T10:15:28.957Z,18.70
2023-09-23T10:20:35.899Z,18.80
2023-09-23T10:25:40.692Z,18.70
2023-09-23T10:30:46.097Z,18.80
2023-09-23T10:35:49.402Z,18.80
2023-09-23T10:40:53.846Z,18.80
2023-09-23T10:45:59.266Z,18.70
2023-09-23T10:51:04.390Z,18.70
2023-09-23T10:56:11.986Z,18.80
2023-09-23T11:01:18.123Z,18.80
2023-09-23T11:06:21.368Z,18.90
2023-09-23T11:11:24.596Z,18.90
2023-09-23T11:16:29.176Z,18.80
2023-09-23T11:21:32.479Z,18.80
2023-09-23T11:26:40.006Z,18.90
2023-09-23T11:31:44.539Z,19.00
2023-09-23T11:36:48.164Z,19.20
2023-09-23T11:41:58.587Z,19.30
2023-09-23T11:47:03.804Z,19.50
2023-09-23T11:52:13.620Z,19.70
2023-09-23T11:57:16.984Z,19.80
2023-09-23T12:02:22.630Z,19.90
2023-09-23T12:07:26.073Z,20.00
2023-09-23T12:12:29.353Z,20.10
2023-09-23T12:17:33.906Z,20.20
2023-09-23T12:22:37.285Z,20.20
2023-09-23T12:27:40.384Z,20.20
2023-09-23T12:32:45.063Z,20.20
2023-09-23T12:37:48.297Z,20.20
2023-09-23T12:42:52.591Z,20.20
2023-09-23T12:47:58.207Z,20.20
2023-09-23T12:53:01.803Z,20.20
2023-09-23T12:58:06.582Z,20.30
2023-09-23T13:03:11.822Z,20.20
2023-09-23T13:08:16.162Z,20.20
2023-09-23T13:13:19.446Z,20.20
2023-09-23T13:18:23.990Z,20.10
2023-09-23T13:23:27.183Z,20.10
2023-09-23T13:28:31.485Z,20.10
2023-09-23T13:33:37.001Z,20.10
2023-09-23T13:38:40.153Z,20.10
2023-09-23T13:43:43.523Z,20.10
2023-09-23T13:48:48.370Z,20.10
2023-09-23T13:53:51.703Z,20.00
2023-09-23T13:58:55.354Z,20.00
2023-09-23T14:04:00.111Z,20.10
2023-09-23T14:09:04.483Z,20.00
2023-09-23T14:14:07.675Z,20.00
2023-09-23T14:19:12.191Z,20.00
2023-09-23T14:24:15.327Z,19.90
2023-09-23T14:29:18.492Z,19.90
2023-09-23T14:34:23.714Z,19.80
2023-09-23T14:39:26.918Z,19.90
2023-09-23T14:44:30.100Z,19.90
2023-09-23T14:49:34.624Z,19.90
2023-09-23T14:54:38.106Z,20.00
2023-09-23T14:59:41.764Z,20.00
2023-09-23T15:04:46.344Z,20.00
2023-09-23T15:09:49.569Z,20.00
2023-09-23T15:14:52.874Z,20.00
2023-09-23T15:19:57.482Z,20.00
2023-09-23T15:25:00.800Z,20.00
2023-09-23T15:30:04.202Z,20.00
2023-09-23T15:35:09.947Z,20.00
2023-09-23T15:40:15.190Z,20.00
2023-09-23T15:45:18.436Z,20.00
2023-09-23T15:50:22.975Z,20.10
2023-09-23T15:55:26.311Z,20.10
2023-09-23T16:00:29.553Z,20.10
2023-09-23T16:05:34.182Z,20.20
2023-09-23T16:10:37.347Z,20.20
2023-09-23T16:15:40.614Z,20.20
2023-09-23T16:20:45.347Z,20.30
2023-09-23T16:25:48.545Z,20.30
2023-09-23T16:30:51.708Z,20.30
2023-09-23T16:35:56.685Z,20.30
2023-09-23T16:40:59.878Z,20.30
2023-09-23T16:46:03.032Z,20.40
2023-09-23T16:51:08.748Z,20.40
2023-09-23T16:56:11.886Z,20.40
2023-09-23T17:01:16.526Z,20.40
2023-09-23T17:06:21.417Z,20.30
2023-09-23T17:11:25.717Z,20.20
2023-09-23T17:16:28.908Z,20.10
2023-09-23T17:21:33.570Z,20.00
2023-09-23T17:26:36.739Z,19.90
2023-09-23T17:31:40.196Z,19.80
2023-09-23T17:36:44.747Z,19.70
2023-09-23T17:41:48.382Z,19.50
2023-09-23T17:46:51.582Z,19.30
2023-09-23T17:51:56.090Z,19.10
2023-09-23T17:56:59.342Z,19.00
2023-09-23T18:02:02.637Z,18.90
2023-09-23T18:07:07.261Z,18.80
2023-09-23T18:12:11.839Z,18.80
2023-09-23T18:17:16.128Z,18.80
2023-09-23T18:22:20.823Z,18.80
2023-09-23T18:27:23.918Z,18.70
2023-09-23T18:32:27.148Z,18.50
2023-09-23T18:37:31.704Z,18.40
2023-09-23T18:42:34.831Z,18.30
2023-09-23T18:47:38.769Z,18.20
2023-09-23T18:52:43.418Z,18.10
2023-09-23T18:57:46.596Z,18.00
2023-09-23T19:02:50.128Z,18.00
2023-09-23T19:07:54.707Z,18.00
2023-09-23T19:12:58.395Z,18.00
2023-09-23T19:18:01.766Z,18.10
2023-09-23T19:23:06.593Z,18.20
2023-09-23T19:28:09.910Z,18.20
2023-09-23T19:33:13.619Z,18.30
2023-09-23T19:38:18.368Z,18.30
2023-09-23T19:43:22.181Z,18.40
2023-09-23T19:48:25.596Z,18.30
2023-09-23T19:53:30.168Z,18.40
2023-09-23T19:58:33.410Z,18.40
2023-09-23T20:03:36.652Z,18.40
2023-09-23T20:08:41.311Z,18.40
2023-09-23T20:13:45.318Z,18.40
2023-09-23T20:18:48.974Z,18.40
2023-09-23T20:23:53.596Z,18.40
2023-09-23T20:28:56.780Z,18.30
2023-09-23T20:34:00.488Z,18.30
2023-09-23T20:39:05.698Z,18.30
2023-09-23T20:44:09.215Z,18.20
2023-09-23T20:49:14.294Z,18.20
2023-09-23T20:54:19.227Z,18.20
2023-09-23T20:59:22.396Z,18.10
2023-09-23T21:04:25.706Z,18.00
2023-09-23T21:09:30.549Z,18.00
2023-09-23T21:14:33.979Z,17.90
2023-09-23T21:19:37.247Z,17.80
2023-09-23T21:24:41.888Z,17.80
2023-09-23T21:29:45.048Z,17.80
2023-09-23T21:34:48.748Z,17.80
2023-09-23T21:39:54.800Z,17.70
2023-09-23T21:44:59.153Z,17.60
2023-09-23T21:50:03.116Z,17.50
2023-09-23T21:55:08.416Z,17.50
2023-09-23T22:00:27.272Z,17.50
2023-09-23T22:05:32.411Z,17.40
2023-09-23T22:10:36.950Z,17.40
2023-09-23T22:15:40.170Z,17.30
2023-09-23T22:20:44.038Z,17.20
2023-09-23T22:25:48.882Z,17.10
2023-09-23T22:30:52.260Z,17.00
2023-09-23T22:35:55.506Z,16.90
2023-09-23T22:41:00.070Z,16.80
2023-09-23T22:46:03.383Z,16.80
2023-09-23T22:51:06.898Z,16.70
2023-09-23T22:56:12.588Z,16.70
2023-09-23T23:01:17.190Z,16.70
2023-09-23T23:06:20.776Z,16.70
2023-09-23T23:11:25.712Z,16.70
2023-09-23T23:16:29.016Z,16.60
2023-09-23T23:21:32.203Z,16.50
2023-09-23T23:26:36.804Z,16.50
2023-09-23T23:31:41.240Z,16.40
2023-09-23T23:36:45.195Z,16.40
2023-09-23T23:41:49.820Z,16.30
2023-09-23T23:46:53.132Z,16.20
2023-09-23T23:51:57.199Z,16.30
2023-09-23T23:57:01.788Z,16.20
